Terminal Aerodrome Forecast
Issued by NWS

Current Version | Previous Version | Graphics & Text | Print | Product List | Glossary On
Versions: 1 2 3 4 5 6 7 8 9 10 11 12 13 14 15 16 17 18 19 20 21 22 23 24 25 26 27 28 29 30
000
FTUS41 KILN 240900 AAA
TAFLUK
TAF AMD
KLUK 240905Z 2409/2506 21015G25KT P6SM VCSH SCT015 OVC028
      TEMPO 2409/2411 BKN018
     FM241100 19018G32KT P6SM VCSH SCT015 OVC030
      TEMPO 2415/2417 24023G36KT 5SM -SHRA BR OVC015
     FM241700 24017G27KT P6SM OVC028
     FM250000 24011G21KT P6SM BKN030
     FM250500 25010KT P6SM SCT035=

USA.gov is the U.S. government's official web portal to all federal, state and local government web resources and services.